Time;durP1;ratioP1;P1;durP2;ratioP2;P2;SDS_P1;SDS_P2;PMS_P1;PMS_P2;Temp;Humidity;BMP_temperature;BMP_pressure;BME280_temperature;BME280_humidity;BME280_pressure;Samples;Min_cycle;Max_cycle;Signal;HPM_P1;HPM_P2
2023/10/31 00:01:21;;;;;;;0.00;0.00;;;;;;;-144.99;100.00;67352.69;4954840;28;20233;-81
2023/10/31 00:03:46;;;;;;;0.00;0.00;;;;;;;-144.99;100.00;67352.69;4953213;29;20256;-82
2023/10/31 00:06:12;;;;;;;0.23;0.23;;;;;;;-144.99;100.00;67352.69;4953777;29;20191;-81
2023/10/31 00:08:37;;;;;;;0.00;0.00;;;;;;;-144.99;100.00;67352.69;4953844;29;20725;-82
2023/10/31 00:11:02;;;;;;;0.00;0.00;;;;;;;-144.99;100.00;67352.69;4953506;28;20244;-81
2023/10/31 00:13:28;;;;;;;0.00;0.00;;;;;;;-144.99;100.00;67352.69;4999316;23;20221;-89
2023/10/31 00:15:56;;;;;;;0.00;0.00;;;;;;;-144.99;100.00;67352.69;4984853;28;20188;-88
2023/10/31 00:18:25;;;;;;;0.00;0.00;;;;;;;-144.99;100.00;67352.69;4983449;28;20210;-88
2023/10/31 00:20:50;;;;;;;0.00;0.00;;;;;;;-144.99;100.00;67352.69;4976980;28;20196;-87
2023/10/31 00:23:18;;;;;;;0.03;0.03;;;;;;;-144.99;100.00;67352.69;4976343;28;20233;-87
2023/10/31 00:25:54;;;;;;;0.40;0.40;;;;;;;-144.99;100.00;67352.69;4970912;28;20187;-88
2023/10/31 00:28:20;;;;;;;0.00;0.00;;;;;;;-144.99;100.00;67352.69;4977263;28;20270;-86
2023/10/31 00:30:51;;;;;;;0.73;0.23;;;;;;;-144.99;100.00;67352.69;4967629;28;20294;-87
2023/10/31 00:33:19;;;;;;;0.00;0.00;;;;;;;-144.99;100.00;67352.69;4979007;28;20673;-87
2023/10/31 00:35:50;;;;;;;0.00;0.00;;;;;;;-144.99;100.00;67352.69;4979844;28;20184;-87
2023/10/31 00:38:16;;;;;;;0.00;0.00;;;;;;;-144.99;100.00;67352.69;4963114;28;20263;-88
2023/10/31 00:40:46;;;;;;;0.27;0.20;;;;;;;-144.99;100.00;67352.69;4970394;28;20182;-87
2023/10/31 00:43:17;;;;;;;0.00;0.00;;;;;;;-144.99;100.00;67352.69;4962580;28;20213;-87
2023/10/31 00:45:56;;;;;;;0.00;0.00;;;;;;;-144.99;100.00;67352.69;4970245;28;20196;-88
2023/10/31 00:48:27;;;;;;;0.50;0.50;;;;;;;-144.99;100.00;67352.69;4966896;28;20648;-88
2023/10/31 00:51:04;;;;;;;0.00;0.00;;;;;;;-144.99;100.00;67352.69;4985835;28;20192;-88
2023/10/31 00:53:33;;;;;;;0.00;0.00;;;;;;;-144.99;100.00;67352.69;4969996;28;20252;-87
2023/10/31 00:55:58;;;;;;;0.00;0.00;;;;;;;-144.99;100.00;67352.69;4970006;28;20564;-88
2023/10/31 00:58:24;;;;;;;0.00;0.00;;;;;;;-144.99;100.00;67352.69;4971379;28;20221;-88
2023/10/31 01:00:55;;;;;;;0.00;0.00;;;;;;;-144.99;100.00;67352.69;4970025;28;20258;-88
2023/10/31 01:03:26;;;;;;;0.00;0.00;;;;;;;-144.99;100.00;67352.69;4969899;28;20690;-88
2023/10/31 01:05:51;;;;;;;0.00;0.00;;;;;;;-144.99;100.00;67352.69;4970336;28;20205;-87
2023/10/31 01:08:40;;;;;;;0.00;0.00;;;;;;;-144.99;100.00;67352.69;4969877;28;20185;-88
2023/10/31 01:11:08;;;;;;;0.00;0.00;;;;;;;-144.99;100.00;67352.69;4966653;28;20685;-87
2023/10/31 01:13:43;;;;;;;0.30;0.30;;;;;;;-144.99;100.00;67352.69;4969848;28;20306;-87
2023/10/31 01:16:17;;;;;;;0.00;0.00;;;;;;;-144.99;100.00;67352.69;4971003;28;20349;-88
2023/10/31 01:18:42;;;;;;;0.13;0.13;;;;;;;-144.99;100.00;67352.69;4969855;28;20306;-88
2023/10/31 01:21:09;;;;;;;0.17;0.17;;;;;;;-144.99;100.00;67352.69;4970858;28;20660;-88
2023/10/31 01:23:37;;;;;;;0.23;0.23;;;;;;;-144.99;100.00;67352.69;4968972;28;20209;-87
2023/10/31 01:26:03;;;;;;;0.30;0.30;;;;;;;-144.99;100.00;67352.69;4985855;28;20197;-88
2023/10/31 01:28:28;;;;;;;0.07;0.07;;;;;;;-144.99;100.00;67352.69;4969625;28;20533;-87
2023/10/31 01:31:06;;;;;;;0.00;0.00;;;;;;;-144.99;100.00;67352.69;4969468;28;20327;-87
2023/10/31 01:33:34;;;;;;;0.00;0.00;;;;;;;-144.99;100.00;67352.69;4969112;28;20219;-87
2023/10/31 01:35:59;;;;;;;0.00;0.00;;;;;;;-144.99;100.00;67352.69;4968793;28;20213;-88
2023/10/31 01:38:39;;;;;;;0.00;0.00;;;;;;;-144.99;100.00;67352.69;4969339;28;20217;-87
2023/10/31 01:41:09;;;;;;;0.00;0.00;;;;;;;-144.99;100.00;67352.69;4971810;28;20201;-87
2023/10/31 01:43:56;;;;;;;0.00;0.00;;;;;;;-144.99;100.00;67352.69;4969123;28;20267;-87
2023/10/31 01:46:22;;;;;;;0.00;0.00;;;;;;;-144.99;100.00;67352.69;4964586;28;20181;-88
2023/10/31 01:48:59;;;;;;;0.00;0.00;;;;;;;-144.99;100.00;67352.69;4969524;28;20258;-87
2023/10/31 01:51:26;;;;;;;0.00;0.00;;;;;;;-144.99;100.00;67352.69;4970516;28;20189;-88
2023/10/31 01:53:56;;;;;;;0.00;0.00;;;;;;;-144.99;100.00;67352.69;4970121;28;20547;-88
2023/10/31 01:56:22;;;;;;;0.00;0.00;;;;;;;-144.99;100.00;67352.69;4985756;28;20555;-88
2023/10/31 01:58:53;;;;;;;0.00;0.00;;;;;;;-144.99;100.00;67352.69;4969184;28;20225;-88
2023/10/31 02:01:19;;;;;;;0.00;0.00;;;;;;;-144.99;100.00;67352.69;4970808;28;20612;-88
2023/10/31 02:03:50;;;;;;;0.03;0.03;;;;;;;-144.99;100.00;67352.69;4970423;28;20206;-88
2023/10/31 02:06:30;;;;;;;0.23;0.23;;;;;;;-144.99;100.00;67352.69;4969323;28;20243;-87
2023/10/31 02:09:04;;;;;;;0.00;0.00;;;;;;;-144.99;100.00;67352.69;4969092;28;20184;-88
2023/10/31 02:11:33;;;;;;;0.00;0.00;;;;;;;-144.99;100.00;67352.69;4969132;28;20196;-88
2023/10/31 02:13:59;;;;;;;0.03;0.03;;;;;;;-144.99;100.00;67352.69;4969126;28;20200;-88
2023/10/31 02:16:30;;;;;;;0.40;0.40;;;;;;;-144.99;100.00;67352.69;4969141;28;20194;-87
2023/10/31 02:19:00;;;;;;;0.47;0.47;;;;;;;-144.99;100.00;67352.69;4971023;28;20206;-87
2023/10/31 02:21:37;;;;;;;0.37;0.37;;;;;;;-144.99;100.00;67352.69;4972752;28;20196;-88
2023/10/31 02:24:09;;;;;;;0.80;0.80;;;;;;;-144.99;100.00;67352.69;4972770;28;20232;-88
2023/10/31 02:26:42;;;;;;;0.00;0.00;;;;;;;-144.99;100.00;67352.69;4972775;28;20182;-85
2023/10/31 02:29:11;;;;;;;0.00;0.00;;;;;;;-144.99;100.00;67352.69;4973883;28;20610;-87
2023/10/31 02:31:49;;;;;;;0.40;0.40;;;;;;;-144.99;100.00;67352.69;4972554;28;20229;-87
2023/10/31 02:34:14;;;;;;;0.00;0.00;;;;;;;-144.99;100.00;67352.69;4965386;28;20185;-88
2023/10/31 02:36:48;;;;;;;0.00;0.00;;;;;;;-144.99;100.00;67352.69;4972530;28;20196;-88
2023/10/31 02:39:22;;;;;;;0.00;0.00;;;;;;;-144.99;100.00;67352.69;4964969;28;20205;-87
2023/10/31 02:41:50;;;;;;;0.00;0.00;;;;;;;-144.99;100.00;67352.69;4988443;28;20292;-88
2023/10/31 02:44:22;;;;;;;0.10;0.10;;;;;;;-144.99;100.00;67352.69;4975107;28;20655;-87
2023/10/31 02:46:50;;;;;;;0.00;0.00;;;;;;;-144.99;100.00;67352.69;4972883;28;20724;-88
2023/10/31 02:49:21;;;;;;;0.00;0.00;;;;;;;-144.99;100.00;67352.69;4973755;28;20602;-87
2023/10/31 02:51:52;;;;;;;0.00;0.00;;;;;;;-144.99;100.00;67352.69;4972066;28;20248;-88
2023/10/31 02:54:23;;;;;;;0.00;0.00;;;;;;;-144.99;100.00;67352.69;4971893;28;20264;-87
2023/10/31 02:56:50;;;;;;;0.00;0.00;;;;;;;-144.99;100.00;67352.69;4973613;28;20178;-88
2023/10/31 02:59:16;;;;;;;0.00;0.00;;;;;;;-144.99;100.00;67352.69;4972135;28;20262;-87
2023/10/31 03:01:47;;;;;;;0.00;0.00;;;;;;;-144.99;100.00;67352.69;4972260;28;20687;-87
2023/10/31 03:04:12;;;;;;;0.47;0.47;;;;;;;-144.99;100.00;67352.69;4964758;28;20185;-88
2023/10/31 03:06:41;;;;;;;0.00;0.00;;;;;;;-144.99;100.00;67352.69;4973314;28;20181;-87
2023/10/31 03:09:15;;;;;;;1.30;0.90;;;;;;;-144.99;100.00;67352.69;4972298;28;20174;-88
2023/10/31 03:11:41;;;;;;;0.23;0.23;;;;;;;-144.99;100.00;67352.69;4972300;28;20217;-87
2023/10/31 03:14:06;;;;;;;0.47;0.47;;;;;;;-144.99;100.00;67352.69;4971591;28;20283;-87
2023/10/31 03:16:38;;;;;;;0.30;0.30;;;;;;;-144.99;100.00;67352.69;4973111;28;20198;-87
2023/10/31 03:19:07;;;;;;;0.73;0.50;;;;;;;-144.99;100.00;67352.69;4971850;28;20210;-87
2023/10/31 03:21:32;;;;;;;1.43;1.33;;;;;;;-144.99;100.00;67352.69;4973715;28;20189;-87
2023/10/31 03:23:58;;;;;;;1.23;1.20;;;;;;;-144.99;100.00;67352.69;4972661;28;20197;-88
2023/10/31 03:26:23;;;;;;;1.70;1.60;;;;;;;-144.99;100.00;67352.69;4972584;28;20198;-87
2023/10/31 03:28:56;;;;;;;1.20;1.13;;;;;;;-144.99;100.00;67352.69;4973866;28;20208;-87
2023/10/31 03:31:22;;;;;;;0.80;0.80;;;;;;;-144.99;100.00;67352.69;4971481;28;20209;-87
2023/10/31 03:33:47;;;;;;;0.80;0.80;;;;;;;-144.99;100.00;67352.69;4973221;28;20182;-87
2023/10/31 03:36:13;;;;;;;0.90;0.90;;;;;;;-144.99;100.00;67352.69;4972474;28;20201;-87
2023/10/31 03:38:38;;;;;;;1.50;1.40;;;;;;;-144.99;100.00;67352.69;4973701;28;20585;-87
2023/10/31 03:41:04;;;;;;;1.67;1.57;;;;;;;-144.99;100.00;67352.69;4973724;28;20215;-86
2023/10/31 03:43:35;;;;;;;1.30;1.30;;;;;;;-144.99;100.00;67352.69;4973592;28;20206;-86
2023/10/31 03:46:02;;;;;;;1.40;1.30;;;;;;;-144.99;100.00;67352.69;4972471;28;20675;-87
2023/10/31 03:48:28;;;;;;;1.43;1.33;;;;;;;-144.99;100.00;67352.69;4974065;28;20197;-87
2023/10/31 03:50:56;;;;;;;2.53;2.33;;;;;;;-144.99;100.00;67352.69;4976086;28;20245;-87
2023/10/31 03:53:22;;;;;;;2.07;1.63;;;;;;;-144.99;100.00;67352.69;4981456;28;20212;-86
2023/10/31 03:56:04;;;;;;;3.27;1.70;;;;;;;-144.99;100.00;67352.69;4976028;28;20185;-87
2023/10/31 03:58:29;;;;;;;0.67;0.67;;;;;;;-144.99;100.00;67352.69;4972759;28;20206;-87
2023/10/31 04:00:57;;;;;;;1.77;1.67;;;;;;;-144.99;100.00;67352.69;4972261;28;20181;-87
2023/10/31 04:03:25;;;;;;;1.93;1.83;;;;;;;-144.99;100.00;67352.69;4973835;28;20267;-87
2023/10/31 04:05:59;;;;;;;2.00;1.90;;;;;;;-144.99;100.00;67352.69;4972407;28;20177;-87
2023/10/31 04:08:24;;;;;;;1.40;1.40;;;;;;;-144.99;100.00;67352.69;4972836;28;20201;-87
2023/10/31 04:10:50;;;;;;;0.80;0.80;;;;;;;-144.99;100.00;67352.69;4972296;28;20644;-87
2023/10/31 04:13:15;;;;;;;0.73;0.73;;;;;;;-144.99;100.00;67352.69;4972066;28;20217;-87
2023/10/31 04:15:40;;;;;;;0.80;0.80;;;;;;;-144.99;100.00;67352.69;4973421;28;20182;-87
2023/10/31 04:18:09;;;;;;;1.17;1.17;;;;;;;-144.99;100.00;67352.69;4972430;28;20227;-87
2023/10/31 04:20:34;;;;;;;2.87;0.97;;;;;;;-144.99;100.00;67352.69;4971688;28;20214;-87
2023/10/31 04:23:06;;;;;;;1.13;0.90;;;;;;;-144.99;100.00;67352.69;4971211;28;20244;-87
2023/10/31 04:25:48;;;;;;;1.33;1.23;;;;;;;-144.99;100.00;67352.69;4971526;28;20177;-87
2023/10/31 04:28:17;;;;;;;0.50;0.50;;;;;;;-144.99;100.00;67352.69;4965694;28;20252;-87
2023/10/31 04:30:42;;;;;;;0.77;0.77;;;;;;;-144.99;100.00;67352.69;4971807;28;20221;-87
2023/10/31 04:33:10;;;;;;;0.83;0.83;;;;;;;-144.99;100.00;67352.69;4973123;28;20239;-87
2023/10/31 04:35:39;;;;;;;0.63;0.63;;;;;;;-144.99;100.00;67352.69;4971568;28;20185;-88
2023/10/31 04:38:12;;;;;;;1.83;1.23;;;;;;;-144.99;100.00;67352.69;4971498;28;20209;-87
2023/10/31 04:40:38;;;;;;;1.23;1.03;;;;;;;-144.99;100.00;67352.69;4971745;28;20727;-87
2023/10/31 04:43:03;;;;;;;0.70;0.70;;;;;;;-144.99;100.00;67352.69;4971061;28;20216;-87
2023/10/31 04:45:29;;;;;;;0.40;0.40;;;;;;;-144.99;100.00;67352.69;4971979;28;20186;-87
2023/10/31 04:47:54;;;;;;;0.50;0.50;;;;;;;-144.99;100.00;67352.69;4971464;28;20647;-87
2023/10/31 04:50:19;;;;;;;0.23;0.23;;;;;;;-144.99;100.00;67352.69;4971606;28;20190;-86
2023/10/31 04:52:52;;;;;;;0.90;0.90;;;;;;;-144.99;100.00;67352.69;4972720;28;20201;-86
2023/10/31 04:55:18;;;;;;;0.30;0.30;;;;;;;-144.99;100.00;67352.69;4972049;28;20619;-87
2023/10/31 04:57:43;;;;;;;0.40;0.40;;;;;;;-144.99;100.00;67352.69;4970899;28;20214;-87
2023/10/31 05:00:10;;;;;;;0.37;0.37;;;;;;;-144.99;100.00;67352.69;4972508;28;20209;-87
2023/10/31 05:02:35;;;;;;;0.23;0.20;;;;;;;-144.99;100.00;67352.69;4971318;28;20209;-86
2023/10/31 05:05:01;;;;;;;0.10;0.10;;;;;;;-144.99;100.00;67352.69;4972233;28;20185;-87
2023/10/31 05:07:27;;;;;;;0.50;0.50;;;;;;;-144.99;100.00;67352.69;4971505;28;20198;-87
2023/10/31 05:09:52;;;;;;;0.33;0.20;;;;;;;-144.99;100.00;67352.69;4972271;28;20288;-87
2023/10/31 05:12:17;;;;;;;1.87;0.30;;;;;;;-144.99;100.00;67352.69;4971484;28;20249;-87
2023/10/31 05:14:50;;;;;;;0.50;0.20;;;;;;;-144.99;100.00;67352.69;4972210;28;20182;-87
2023/10/31 05:17:15;;;;;;;0.30;0.30;;;;;;;-144.99;100.00;67352.69;4972434;28;20261;-87
2023/10/31 05:19:41;;;;;;;0.10;0.10;;;;;;;-144.99;100.00;67352.69;4971174;28;20240;-87
2023/10/31 05:22:09;;;;;;;3.50;0.60;;;;;;;-144.99;100.00;67352.69;4970283;28;20241;-87
2023/10/31 05:24:35;;;;;;;0.43;0.40;;;;;;;-144.99;100.00;67352.69;4971791;28;20178;-87
2023/10/31 05:27:01;;;;;;;1.80;0.60;;;;;;;-144.99;100.00;67352.69;4972373;28;20198;-86
2023/10/31 05:29:30;;;;;;;1.50;0.60;;;;;;;-144.99;100.00;67352.69;4973235;28;20181;-87
2023/10/31 05:32:01;;;;;;;0.43;0.37;;;;;;;-144.99;100.00;67352.69;4971889;28;20213;-87
2023/10/31 05:34:30;;;;;;;1.23;0.50;;;;;;;-144.99;100.00;67352.69;4971474;28;20205;-87
2023/10/31 05:36:59;;;;;;;0.83;0.30;;;;;;;-144.99;100.00;67352.69;4970758;28;20703;-87
2023/10/31 05:39:27;;;;;;;0.27;0.27;;;;;;;-144.99;100.00;67352.69;4971209;28;20266;-87
2023/10/31 05:41:55;;;;;;;0.20;0.20;;;;;;;-144.99;100.00;67352.69;4970691;28;20202;-88
2023/10/31 05:44:21;;;;;;;0.30;0.20;;;;;;;-144.99;100.00;67352.69;4970161;28;20186;-87
2023/10/31 05:46:46;;;;;;;0.93;0.70;;;;;;;-144.99;100.00;67352.69;4970778;28;20242;-86
2023/10/31 05:49:16;;;;;;;0.47;0.47;;;;;;;-144.99;100.00;67352.69;4972521;28;20251;-87
2023/10/31 05:51:43;;;;;;;0.30;0.30;;;;;;;-144.99;100.00;67352.69;4971158;28;20209;-86
2023/10/31 05:54:14;;;;;;;0.30;0.27;;;;;;;-144.99;100.00;67352.69;4972136;28;20204;-87
2023/10/31 05:56:40;;;;;;;0.30;0.30;;;;;;;-144.99;100.00;67352.69;4974093;28;20185;-87
2023/10/31 05:59:14;;;;;;;0.70;0.23;;;;;;;-144.99;100.00;67352.69;4974044;28;20210;-87
2023/10/31 06:01:50;;;;;;;0.20;0.20;;;;;;;-144.99;100.00;67352.69;4974501;28;20187;-87
2023/10/31 06:04:15;;;;;;;0.23;0.23;;;;;;;-144.99;100.00;67352.69;4982813;28;20185;-87
2023/10/31 06:06:41;;;;;;;0.60;0.60;;;;;;;-144.99;100.00;67352.69;4975745;28;20554;-87
2023/10/31 06:09:11;;;;;;;0.33;0.33;;;;;;;-144.99;100.00;67352.69;4975978;28;20703;-87
2023/10/31 06:11:44;;;;;;;0.70;0.70;;;;;;;-144.99;100.00;67352.69;4975834;28;20192;-87
2023/10/31 06:14:11;;;;;;;0.30;0.30;;;;;;;-144.99;100.00;67352.69;4972330;23;20252;-80
2023/10/31 06:16:43;;;;;;;0.37;0.37;;;;;;;-144.99;100.00;67352.69;4953835;28;20197;-82
2023/10/31 06:19:09;;;;;;;0.30;0.30;;;;;;;-144.99;100.00;67352.69;4959890;28;20316;-82
2023/10/31 06:21:35;;;;;;;0.70;0.70;;;;;;;-144.99;100.00;67352.69;4959700;28;20190;-82
2023/10/31 06:24:00;;;;;;;0.27;0.27;;;;;;;-144.99;100.00;67352.69;4960210;28;20206;-82
2023/10/31 06:26:26;;;;;;;1.27;1.17;;;;;;;-144.99;100.00;67352.69;4959753;28;20194;-82
2023/10/31 06:28:51;;;;;;;2.67;0.80;;;;;;;-144.99;100.00;67352.69;4958865;28;20197;-82
2023/10/31 06:31:16;;;;;;;0.60;0.60;;;;;;;-144.99;100.00;67352.69;4958871;28;20194;-82
2023/10/31 06:33:42;;;;;;;0.63;0.63;;;;;;;-144.99;100.00;67352.69;4957559;28;20293;-81
2023/10/31 06:36:08;;;;;;;0.77;0.77;;;;;;;-144.99;100.00;67352.69;4958016;28;20198;-82
2023/10/31 06:38:33;;;;;;;0.40;0.40;;;;;;;-144.99;100.00;67352.69;4959447;28;20218;-82
2023/10/31 06:40:59;;;;;;;0.63;0.63;;;;;;;-144.99;100.00;67352.69;4956903;28;20217;-81
2023/10/31 06:43:24;;;;;;;1.00;0.90;;;;;;;-144.99;100.00;67352.69;4963265;28;20191;-82
2023/10/31 06:45:50;;;;;;;1.07;0.70;;;;;;;-144.99;100.00;67352.69;4958049;28;20194;-82
2023/10/31 06:48:15;;;;;;;5.33;1.20;;;;;;;-144.99;100.00;67352.69;4956736;29;20186;-82
2023/10/31 06:50:40;;;;;;;1.17;0.87;;;;;;;-144.99;100.00;67352.69;4957954;28;20183;-82
2023/10/31 06:53:06;;;;;;;0.33;0.33;;;;;;;-144.99;100.00;67352.69;4955490;28;20286;-82
2023/10/31 06:55:31;;;;;;;0.77;0.70;;;;;;;-144.99;100.00;67352.69;4952073;28;20214;-82
2023/10/31 06:57:56;;;;;;;0.80;0.70;;;;;;;-144.99;100.00;67352.69;4955534;29;20203;-82
2023/10/31 07:00:22;;;;;;;2.23;0.70;;;;;;;-144.99;100.00;67352.69;4955047;28;20274;-82
2023/10/31 07:02:47;;;;;;;0.50;0.50;;;;;;;-144.99;100.00;67352.69;4956532;28;20557;-81
2023/10/31 07:05:13;;;;;;;1.07;1.00;;;;;;;-144.99;100.00;67352.69;4955215;28;20221;-82
2023/10/31 07:07:39;;;;;;;0.80;0.80;;;;;;;-144.99;100.00;67352.69;4972762;28;20225;-82
2023/10/31 07:10:05;;;;;;;1.30;1.20;;;;;;;-144.99;100.00;67352.69;4956648;28;20190;-82
2023/10/31 07:12:30;;;;;;;0.57;0.57;;;;;;;-144.99;100.00;67352.69;4953124;28;20186;-81
2023/10/31 07:14:58;;;;;;;1.83;1.37;;;;;;;-144.99;100.00;67352.69;4951483;28;20203;-82
2023/10/31 07:17:23;;;;;;;1.23;1.13;;;;;;;-144.99;100.00;67352.69;4951735;29;20190;-82
2023/10/31 07:19:49;;;;;;;6.20;3.03;;;;;;;-144.99;100.00;67352.69;4953039;28;20563;-82
2023/10/31 07:22:15;;;;;;;2.83;2.63;;;;;;;-144.99;100.00;67352.69;4953070;28;20190;-81
2023/10/31 07:24:40;;;;;;;1.67;1.57;;;;;;;-144.99;100.00;67352.69;4951384;28;20210;-81
2023/10/31 07:27:06;;;;;;;1.10;1.10;;;;;;;-144.99;100.00;67352.69;4951709;28;20237;-81
2023/10/31 07:29:31;;;;;;;1.50;1.40;;;;;;;-144.99;100.00;67352.69;4951760;28;20183;-82
2023/10/31 07:31:56;;;;;;;3.37;3.07;;;;;;;-144.99;100.00;67352.69;4952764;28;20190;-81
2023/10/31 07:34:22;;;;;;;4.27;3.87;;;;;;;-144.99;100.00;67352.69;4951348;28;20218;-81
2023/10/31 07:36:47;;;;;;;2.40;2.30;;;;;;;-144.99;100.00;67352.69;4952717;28;20209;-81
2023/10/31 07:39:13;;;;;;;2.37;2.17;;;;;;;-144.99;100.00;67352.69;4952755;28;20672;-81
2023/10/31 07:41:39;;;;;;;2.90;2.70;;;;;;;-144.99;100.00;67352.69;4951491;28;20209;-81
2023/10/31 07:44:04;;;;;;;2.97;2.43;;;;;;;-144.99;100.00;67352.69;4950914;28;20569;-81
2023/10/31 07:46:29;;;;;;;3.73;3.43;;;;;;;-144.99;100.00;67352.69;4951260;28;20248;-81
2023/10/31 07:48:54;;;;;;;3.90;3.60;;;;;;;-144.99;100.00;67352.69;4952664;28;20179;-81
2023/10/31 07:51:20;;;;;;;4.17;3.83;;;;;;;-144.99;100.00;67352.69;4951276;28;20186;-81
2023/10/31 07:53:46;;;;;;;4.67;4.07;;;;;;;-144.99;100.00;67352.69;4952208;28;20298;-81
2023/10/31 07:56:22;;;;;;;6.73;5.30;;;;;;;-144.99;100.00;67352.69;4952219;28;20599;-81
2023/10/31 07:58:51;;;;;;;4.40;4.00;;;;;;;-144.99;100.00;67352.69;4951922;28;20206;-81
2023/10/31 08:01:22;;;;;;;5.93;5.37;;;;;;;-144.99;100.00;67352.69;4950880;28;20266;-81
2023/10/31 08:03:48;;;;;;;4.70;4.30;;;;;;;-144.99;100.00;67352.69;4946734;28;20218;-82
2023/10/31 08:06:14;;;;;;;4.20;3.87;;;;;;;-144.99;100.00;67352.69;4953007;28;20186;-81
2023/10/31 08:08:39;;;;;;;5.87;5.47;;;;;;;-144.99;100.00;67352.69;4952580;28;20183;-81
2023/10/31 08:11:08;;;;;;;6.77;6.27;;;;;;;-144.99;100.00;67352.69;4952184;28;20182;-82
2023/10/31 08:13:33;;;;;;;5.30;4.90;;;;;;;-144.99;100.00;67352.69;4950734;28;20195;-81
2023/10/31 08:15:58;;;;;;;3.80;3.37;;;;;;;-144.99;100.00;67352.69;4946709;28;20270;-81
2023/10/31 08:18:24;;;;;;;4.90;4.60;;;;;;;-144.99;100.00;67352.69;4950799;28;20214;-82
2023/10/31 08:20:50;;;;;;;3.60;2.60;;;;;;;-144.99;100.00;67352.69;4951519;28;20187;-81
2023/10/31 08:23:17;;;;;;;3.67;3.47;;;;;;;-144.99;100.00;67352.69;4958936;28;20190;-81
2023/10/31 08:25:43;;;;;;;4.17;3.90;;;;;;;-144.99;100.00;67352.69;4951800;28;20550;-81
2023/10/31 08:28:08;;;;;;;4.17;3.70;;;;;;;-144.99;100.00;67352.69;4951689;28;20232;-81
2023/10/31 08:30:33;;;;;;;3.50;3.20;;;;;;;-144.99;100.00;67352.69;4951564;29;20198;-81
2023/10/31 08:32:59;;;;;;;2.60;2.40;;;;;;;-144.99;100.00;67352.69;4952162;28;20190;-80
2023/10/31 08:35:24;;;;;;;0.77;0.53;;;;;;;-144.99;100.00;67352.69;4952238;28;20229;-81
2023/10/31 08:37:49;;;;;;;0.50;0.50;;;;;;;-144.99;100.00;67352.69;4950532;28;20301;-82
2023/10/31 08:40:15;;;;;;;1.23;0.77;;;;;;;-144.99;100.00;67352.69;4951112;28;20186;-81
2023/10/31 08:42:41;;;;;;;2.30;0.60;;;;;;;-144.99;100.00;67352.69;4952124;28;20575;-82
2023/10/31 08:45:07;;;;;;;0.30;0.30;;;;;;;-144.99;100.00;67352.69;4950431;28;20637;-81
2023/10/31 08:47:32;;;;;;;0.50;0.20;;;;;;;-144.99;100.00;67352.69;4951819;28;20191;-82
2023/10/31 08:49:58;;;;;;;0.30;0.30;;;;;;;-144.99;100.00;67352.69;4954336;28;20182;-82
2023/10/31 08:52:24;;;;;;;0.10;0.10;;;;;;;-144.99;100.00;67352.69;4952026;28;20651;-81
2023/10/31 08:54:49;;;;;;;0.30;0.30;;;;;;;-144.99;100.00;67352.69;4950169;28;20222;-82
2023/10/31 08:57:14;;;;;;;0.10;0.10;;;;;;;-144.99;100.00;67352.69;4951731;28;20186;-82
2023/10/31 08:59:40;;;;;;;1.03;0.27;;;;;;;-144.99;100.00;67352.69;4950434;28;20210;-81
2023/10/31 09:02:05;;;;;;;0.00;0.00;;;;;;;-144.99;100.00;67352.69;4953403;28;20285;-82
2023/10/31 09:04:31;;;;;;;0.10;0.10;;;;;;;-144.99;100.00;67352.69;4957312;28;20493;-82
2023/10/31 09:06:56;;;;;;;0.00;0.00;;;;;;;-144.99;100.00;67352.69;4964967;28;20386;-82
2023/10/31 09:09:21;;;;;;;1.10;0.30;;;;;;;-144.99;100.00;67352.69;4969540;28;20182;-82
2023/10/31 09:11:47;;;;;;;0.30;0.27;;;;;;;-144.99;100.00;67352.69;4951968;28;20322;-82
2023/10/31 09:14:12;;;;;;;0.10;0.10;;;;;;;-144.99;100.00;67352.69;4953166;28;20230;-82
2023/10/31 09:16:37;;;;;;;0.20;0.20;;;;;;;-144.99;100.00;67352.69;4953862;28;20645;-82
2023/10/31 09:19:03;;;;;;;0.10;0.10;;;;;;;-144.99;100.00;67352.69;4954170;28;20276;-83
2023/10/31 09:21:28;;;;;;;0.50;0.20;;;;;;;-144.99;100.00;67352.69;4954135;28;20183;-81
2023/10/31 09:23:54;;;;;;;5.10;0.40;;;;;;;-144.99;100.00;67352.69;4963213;28;20217;-82
2023/10/31 09:26:19;;;;;;;0.10;0.10;;;;;;;-144.99;100.00;67352.69;4951785;28;20193;-82
2023/10/31 09:28:49;;;;;;;0.53;0.53;;;;;;;-144.99;100.00;67352.69;4951719;28;20255;-82
2023/10/31 09:31:17;;;;;;;0.33;0.30;;;;;;;-144.99;100.00;67352.69;4951080;28;20186;-81
2023/10/31 09:33:42;;;;;;;0.20;0.20;;;;;;;-144.99;100.00;67352.69;4950367;28;20203;-81
2023/10/31 09:36:08;;;;;;;0.10;0.10;;;;;;;-144.99;100.00;67352.69;4950932;28;20562;-82
2023/10/31 09:38:33;;;;;;;0.30;0.30;;;;;;;-144.99;100.00;67352.69;4949363;28;20210;-81
2023/10/31 09:40:59;;;;;;;0.50;0.50;;;;;;;-144.99;100.00;67352.69;4949343;28;20256;-82
2023/10/31 09:43:24;;;;;;;0.87;0.30;;;;;;;-144.99;100.00;67352.69;4949152;28;20605;-82
2023/10/31 09:45:49;;;;;;;0.73;0.33;;;;;;;-144.99;100.00;67352.69;4949203;28;20232;-82
2023/10/31 09:48:15;;;;;;;0.70;0.70;;;;;;;-144.99;100.00;67352.69;4949563;28;20213;-85
2023/10/31 09:50:41;;;;;;;0.60;0.40;;;;;;;-144.99;100.00;67352.69;4987413;28;20187;-86
2023/10/31 09:53:08;;;;;;;8.70;0.40;;;;;;;-144.99;100.00;67352.69;4952947;28;20190;-83
2023/10/31 09:55:34;;;;;;;1.27;0.30;;;;;;;-144.99;100.00;67352.69;4948875;28;20214;-81
2023/10/31 09:58:00;;;;;;;0.17;0.17;;;;;;;-144.99;100.00;67352.69;4949273;28;20214;-81
2023/10/31 10:00:25;;;;;;;0.37;0.37;;;;;;;-144.99;100.00;67352.69;4950507;28;20695;-82
2023/10/31 10:02:51;;;;;;;0.10;0.10;;;;;;;-144.99;100.00;67352.69;4949234;28;20214;-81
2023/10/31 10:05:18;;;;;;;0.20;0.20;;;;;;;-144.99;100.00;67352.69;4949993;28;20238;-81
2023/10/31 10:07:46;;;;;;;1.20;0.20;;;;;;;-144.99;100.00;67352.69;4949119;28;20194;-81
2023/10/31 10:10:12;;;;;;;0.47;0.10;;;;;;;-144.99;100.00;67352.69;4949832;28;20194;-82
2023/10/31 10:12:37;;;;;;;0.13;0.13;;;;;;;-144.99;100.00;67352.69;4948820;28;20224;-81
2023/10/31 10:15:03;;;;;;;0.00;0.00;;;;;;;-144.99;100.00;67352.69;4950020;28;20206;-82
2023/10/31 10:17:28;;;;;;;0.00;0.00;;;;;;;-144.99;100.00;67352.69;4950003;28;20734;-82
2023/10/31 10:20:10;;;;;;;0.33;0.20;;;;;;;-144.99;100.00;67352.69;4949610;28;20206;-82
2023/10/31 10:22:42;;;;;;;0.10;0.10;;;;;;;-144.99;100.00;67352.69;4949860;28;20307;-81
2023/10/31 10:25:16;;;;;;;0.10;0.10;;;;;;;-144.99;100.00;67352.69;4949619;28;20211;-82
2023/10/31 10:27:42;;;;;;;0.13;0.13;;;;;;;-144.99;100.00;67352.69;4949314;28;20185;-82
2023/10/31 10:30:09;;;;;;;7.73;0.43;;;;;;;-144.99;100.00;67352.69;4952427;28;20193;-82
2023/10/31 10:32:34;;;;;;;0.13;0.13;;;;;;;-144.99;100.00;67352.69;4952444;28;20191;-82
2023/10/31 10:35:00;;;;;;;0.40;0.30;;;;;;;-144.99;100.00;67352.69;4952075;28;20210;-82
2023/10/31 10:37:27;;;;;;;6.60;0.70;;;;;;;-144.99;100.00;67352.69;4952107;28;20635;-81
2023/10/31 10:39:55;;;;;;;0.40;0.20;;;;;;;-144.99;100.00;67352.69;4952937;28;20581;-82
2023/10/31 10:42:46;;;;;;;0.87;0.30;;;;;;;-144.99;100.00;67352.69;4955453;28;20194;-82
2023/10/31 10:45:13;;;;;;;0.20;0.20;;;;;;;-144.99;100.00;67352.69;4954024;28;20217;-82
2023/10/31 10:47:39;;;;;;;0.20;0.20;;;;;;;-144.99;100.00;67352.69;4955185;28;20669;-81
2023/10/31 10:50:06;;;;;;;0.47;0.47;;;;;;;-144.99;100.00;67352.69;4955905;28;20183;-82
2023/10/31 10:52:58;;;;;;;1.37;0.20;;;;;;;-144.99;100.00;67352.69;4955528;28;20266;-82
2023/10/31 10:55:28;;;;;;;0.30;0.30;;;;;;;-144.99;100.00;67352.69;4954121;28;20210;-81
2023/10/31 10:58:05;;;;;;;1.00;0.37;;;;;;;-144.99;100.00;67352.69;4953631;28;20240;-82
2023/10/31 11:00:31;;;;;;;0.30;0.30;;;;;;;-144.99;100.00;67352.69;4953757;28;20190;-82
2023/10/31 11:02:57;;;;;;;0.77;0.70;;;;;;;-144.99;100.00;67352.69;4955074;28;20213;-82
2023/10/31 11:05:26;;;;;;;0.30;0.30;;;;;;;-144.99;100.00;67352.69;4954489;28;20700;-82
2023/10/31 11:07:52;;;;;;;0.60;0.60;;;;;;;-144.99;100.00;67352.69;4953349;28;20684;-81
2023/10/31 11:10:18;;;;;;;0.30;0.30;;;;;;;-144.99;100.00;67352.69;4954914;28;20697;-82
2023/10/31 11:12:44;;;;;;;1.80;0.50;;;;;;;-144.99;100.00;67352.69;4953440;28;20719;-82